createdAt,value
2023-03-17T00:00:28.483Z,9.45
2023-03-17T00:01:32.402Z,10.13
2023-03-17T00:02:37.342Z,9.27
2023-03-17T00:03:55.431Z,8.40
2023-03-17T00:04:59.677Z,10.00
2023-03-17T00:06:05.544Z,9.10
2023-03-17T00:07:17.088Z,11.90
2023-03-17T00:08:29.986Z,9.25
2023-03-17T00:09:33.874Z,8.77
2023-03-17T00:10:37.850Z,7.38
2023-03-17T00:11:43.497Z,7.80
2023-03-17T00:12:52.263Z,8.50
2023-03-17T00:13:56.741Z,8.70
2023-03-17T00:15:00.254Z,8.18
2023-03-17T00:16:13.264Z,10.00
2023-03-17T00:17:16.864Z,9.70
2023-03-17T00:18:21.555Z,8.82
2023-03-17T00:19:35.798Z,9.90
2023-03-17T00:20:40.135Z,8.95
2023-03-17T00:21:45.334Z,8.57
2023-03-17T00:22:49.251Z,9.45
2023-03-17T00:23:53.038Z,8.75
2023-03-17T00:24:56.751Z,8.88
2023-03-17T00:26:00.847Z,8.38
2023-03-17T00:27:13.993Z,9.05
2023-03-17T00:28:22.215Z,8.57
2023-03-17T00:29:27.140Z,7.93
2023-03-17T00:30:31.478Z,10.00
2023-03-17T00:31:36.636Z,8.70
2023-03-17T00:32:41.156Z,8.55
2023-03-17T00:33:48.147Z,9.02
2023-03-17T00:34:52.642Z,10.23
2023-03-17T00:35:58.794Z,7.88
2023-03-17T00:37:02.439Z,9.73
2023-03-17T00:38:15.038Z,8.10
2023-03-17T00:39:20.442Z,10.30
2023-03-17T00:40:32.705Z,9.43
2023-03-17T00:41:36.421Z,9.00
2023-03-17T00:42:40.992Z,8.20
2023-03-17T00:43:45.830Z,10.77
2023-03-17T00:44:50.278Z,8.38
2023-03-17T00:45:55.164Z,8.23
2023-03-17T00:46:59.429Z,9.23
2023-03-17T00:48:39.411Z,8.77
2023-03-17T00:49:43.660Z,8.00
2023-03-17T00:50:50.470Z,10.40
2023-03-17T00:51:54.474Z,9.13
2023-03-17T00:52:58.849Z,7.63
2023-03-17T00:54:02.559Z,10.45
2023-03-17T00:55:09.161Z,9.98
2023-03-17T00:56:22.258Z,9.68
2023-03-17T00:57:29.837Z,8.68
2023-03-17T00:58:35.029Z,7.88
2023-03-17T00:59:44.603Z,9.70
2023-03-17T01:00:48.990Z,8.40
2023-03-17T01:01:54.138Z,11.00
2023-03-17T01:02:58.163Z,6.75
2023-03-17T01:04:02.054Z,9.93
2023-03-17T01:05:08.298Z,8.85
2023-03-17T01:06:14.956Z,11.00
2023-03-17T01:07:18.922Z,7.82
2023-03-17T01:08:24.077Z,10.02
2023-03-17T01:09:30.955Z,9.88
2023-03-17T01:10:35.085Z,8.95
2023-03-17T01:11:42.334Z,10.40
2023-03-17T01:12:46.604Z,9.55
2023-03-17T01:13:51.305Z,8.13
2023-03-17T01:14:55.630Z,7.55
2023-03-17T01:15:59.986Z,8.45
2023-03-17T01:17:03.813Z,8.20
2023-03-17T01:18:07.521Z,9.70
2023-03-17T01:19:17.135Z,9.23
2023-03-17T01:20:25.204Z,8.23
2023-03-17T01:21:29.781Z,9.35
2023-03-17T01:22:34.306Z,8.82
2023-03-17T01:23:39.944Z,9.98
2023-03-17T01:24:44.135Z,9.85
2023-03-17T01:25:47.773Z,9.88
2023-03-17T01:26:51.953Z,8.25
2023-03-17T01:27:59.316Z,8.75
2023-03-17T01:29:04.910Z,8.00
2023-03-17T01:30:20.587Z,10.40
2023-03-17T01:31:24.452Z,7.93
2023-03-17T01:32:28.516Z,12.15
2023-03-17T01:33:32.371Z,8.97
2023-03-17T01:34:35.958Z,8.35
2023-03-17T01:35:41.476Z,10.25
2023-03-17T01:36:49.147Z,9.70
2023-03-17T01:37:53.894Z,9.63
2023-03-17T01:38:59.046Z,9.20
2023-03-17T01:40:02.798Z,10.32
2023-03-17T01:41:11.178Z,9.05
2023-03-17T01:42:15.630Z,10.30
2023-03-17T01:43:28.387Z,9.82
2023-03-17T01:44:33.166Z,8.23
2023-03-17T01:46:34.461Z,10.88
2023-03-17T01:47:41.051Z,8.13
2023-03-17T01:48:54.557Z,7.78
2023-03-17T01:50:07.572Z,9.82
2023-03-17T01:51:19.498Z,10.13
2023-03-17T01:52:24.309Z,9.73
2023-03-17T01:53:29.387Z,9.77
2023-03-17T01:54:48.271Z,10.18
2023-03-17T01:55:53.660Z,8.23
2023-03-17T01:57:07.838Z,10.88
2023-03-17T01:58:12.944Z,10.23
2023-03-17T01:59:26.061Z,10.68
2023-03-17T02:00:31.574Z,9.90
2023-03-17T02:01:43.660Z,9.88
2023-03-17T02:02:55.609Z,9.00
2023-03-17T02:04:01.022Z,9.65
2023-03-17T02:05:09.621Z,9.57
2023-03-17T02:06:14.442Z,9.07
2023-03-17T02:07:22.291Z,10.38
2023-03-17T02:08:26.742Z,9.40
2023-03-17T02:09:32.620Z,7.65
2023-03-17T02:10:36.476Z,8.95
2023-03-17T02:11:42.334Z,11.07
2023-03-17T02:12:55.566Z,8.48
2023-03-17T02:13:59.604Z,8.75
2023-03-17T02:15:14.911Z,10.65
2023-03-17T02:16:19.544Z,11.27
2023-03-17T02:17:26.440Z,11.35
2023-03-17T02:18:30.247Z,11.70
2023-03-17T02:19:37.697Z,8.52
2023-03-17T02:20:41.571Z,10.02
2023-03-17T02:21:55.216Z,10.13
2023-03-17T02:23:00.651Z,11.05
2023-03-17T02:24:12.870Z,10.52
2023-03-17T02:25:23.576Z,9.77
2023-03-17T02:26:31.390Z,7.95
2023-03-17T02:27:45.207Z,9.48
2023-03-17T02:28:49.459Z,9.27
2023-03-17T02:29:55.705Z,9.55
2023-03-17T02:30:59.551Z,9.68
2023-03-17T02:32:05.611Z,9.52
2023-03-17T02:33:12.057Z,8.68
2023-03-17T02:34:16.468Z,10.32
2023-03-17T02:35:20.740Z,9.65
2023-03-17T02:36:25.354Z,8.38
2023-03-17T02:37:29.644Z,9.80
2023-03-17T02:38:40.193Z,8.68
2023-03-17T02:39:47.497Z,10.85
2023-03-17T02:40:52.149Z,8.80
2023-03-17T02:41:56.764Z,10.73
2023-03-17T02:43:00.555Z,9.90
2023-03-17T02:44:04.733Z,7.72
2023-03-17T02:45:14.535Z,8.17
2023-03-17T02:46:18.836Z,11.60
2023-03-17T02:47:22.595Z,9.70
2023-03-17T02:48:26.501Z,9.10
2023-03-17T02:49:31.911Z,9.00
2023-03-17T02:50:36.260Z,9.37
2023-03-17T02:51:40.251Z,9.93
2023-03-17T02:52:43.854Z,10.40
2023-03-17T02:53:48.462Z,10.60
2023-03-17T02:54:52.359Z,10.38
2023-03-17T02:55:56.480Z,10.63
2023-03-17T02:57:01.110Z,8.85
2023-03-17T02:58:04.968Z,9.75
2023-03-17T02:59:09.856Z,11.10
2023-03-17T03:00:14.444Z,10.93
2023-03-17T03:01:19.410Z,10.05
2023-03-17T03:02:22.975Z,9.45
2023-03-17T03:03:26.744Z,9.83
2023-03-17T03:04:30.743Z,9.07
2023-03-17T03:05:35.433Z,10.60
2023-03-17T03:06:48.368Z,10.37
2023-03-17T03:07:52.392Z,10.23
2023-03-17T03:08:56.077Z,8.93
2023-03-17T03:10:00.696Z,9.95
2023-03-17T03:11:05.439Z,9.20
2023-03-17T03:12:14.659Z,10.57
2023-03-17T03:13:18.854Z,9.55
2023-03-17T03:14:23.326Z,9.75
2023-03-17T03:15:27.159Z,8.63
2023-03-17T03:16:31.308Z,9.65
2023-03-17T03:17:34.934Z,8.50
2023-03-17T03:18:38.965Z,9.00
2023-03-17T03:19:42.924Z,10.18
2023-03-17T03:20:47.422Z,10.07
2023-03-17T03:21:51.349Z,10.50
2023-03-17T03:22:55.209Z,9.20
2023-03-17T03:23:59.048Z,10.50
2023-03-17T03:25:02.780Z,10.13
2023-03-17T03:26:06.293Z,11.00
2023-03-17T03:27:11.106Z,9.77
2023-03-17T03:28:14.946Z,10.05
2023-03-17T03:29:18.809Z,10.55
2023-03-17T03:30:24.174Z,8.30
2023-03-17T03:31:28.334Z,8.43
2023-03-17T03:32:32.213Z,10.07
2023-03-17T03:33:37.128Z,7.63
2023-03-17T03:34:41.357Z,10.60
2023-03-17T03:35:45.822Z,10.85
2023-03-17T03:36:49.692Z,12.30
2023-03-17T03:37:53.807Z,9.13
2023-03-17T03:38:58.036Z,9.65
2023-03-17T03:40:01.584Z,11.13
2023-03-17T03:41:06.513Z,10.47
2023-03-17T03:42:12.379Z,9.02
2023-03-17T03:43:23.429Z,11.60
2023-03-17T03:44:28.007Z,10.27
2023-03-17T03:45:31.778Z,10.13
2023-03-17T03:46:35.742Z,10.73
2023-03-17T03:47:39.858Z,9.30
2023-03-17T03:48:43.794Z,9.50
2023-03-17T03:49:47.927Z,9.65
2023-03-17T03:50:55.426Z,9.17
2023-03-17T03:51:59.317Z,11.13
2023-03-17T03:53:03.662Z,9.37
2023-03-17T03:54:08.390Z,9.60
2023-03-17T03:55:12.490Z,9.45
2023-03-17T03:56:16.241Z,9.38
2023-03-17T03:57:20.583Z,12.83
2023-03-17T03:58:24.471Z,9.50
2023-03-17T03:59:28.164Z,10.37
2023-03-17T04:00:32.660Z,8.25
2023-03-17T04:01:37.588Z,9.03
2023-03-17T04:02:43.528Z,8.83
2023-03-17T04:03:47.506Z,9.02
2023-03-17T04:04:51.963Z,10.03
2023-03-17T04:05:57.833Z,7.80
2023-03-17T04:07:02.229Z,9.33
2023-03-17T04:08:07.532Z,9.20
2023-03-17T04:09:11.313Z,11.10
2023-03-17T04:10:18.316Z,8.32
2023-03-17T04:11:21.786Z,9.52
2023-03-17T04:12:26.490Z,8.70
2023-03-17T04:13:30.866Z,9.97
2023-03-17T04:14:35.327Z,8.27
2023-03-17T04:15:39.078Z,9.33
2023-03-17T04:16:43.598Z,11.93
2023-03-17T04:17:47.824Z,9.17
2023-03-17T04:18:51.672Z,10.33
2023-03-17T04:19:55.440Z,8.53
2023-03-17T04:21:00.109Z,9.37
2023-03-17T04:22:05.077Z,8.30
2023-03-17T04:23:09.067Z,9.43
2023-03-17T04:24:13.273Z,9.30
2023-03-17T04:25:17.067Z,9.57
2023-03-17T04:26:23.417Z,10.80
2023-03-17T04:27:27.418Z,8.70
2023-03-17T04:28:31.860Z,10.43
2023-03-17T04:29:36.276Z,9.50
2023-03-17T04:30:39.922Z,10.77
2023-03-17T04:31:43.949Z,11.00
2023-03-17T04:32:47.799Z,9.75
2023-03-17T04:33:51.526Z,9.15
2023-03-17T04:34:55.116Z,10.57
2023-03-17T04:36:04.146Z,10.32
2023-03-17T04:37:10.855Z,12.38
2023-03-17T04:38:14.660Z,11.53
2023-03-17T04:39:19.104Z,10.30
2023-03-17T04:40:24.494Z,10.90
2023-03-17T04:41:28.749Z,11.52
2023-03-17T04:42:32.786Z,11.32
2023-03-17T04:43:36.973Z,11.80
2023-03-17T04:44:41.358Z,12.40
2023-03-17T04:45:45.184Z,9.52
2023-03-17T04:46:52.736Z,11.23
2023-03-17T04:47:56.405Z,10.40
2023-03-17T04:49:01.384Z,10.57
2023-03-17T04:50:08.158Z,9.87
2023-03-17T04:51:12.266Z,9.50
2023-03-17T04:52:16.198Z,11.55
2023-03-17T04:53:19.989Z,10.63
2023-03-17T04:54:23.620Z,10.85
2023-03-17T04:55:27.675Z,12.82
2023-03-17T04:56:32.104Z,9.15
2023-03-17T04:57:37.006Z,11.87
2023-03-17T04:58:40.757Z,12.10
2023-03-17T04:59:44.452Z,12.85
2023-03-17T05:00:48.072Z,10.90
2023-03-17T05:01:51.662Z,12.33
2023-03-17T05:02:55.589Z,10.73
2023-03-17T05:03:59.474Z,10.77
2023-03-17T05:05:03.324Z,12.65
2023-03-17T05:06:07.229Z,12.75
2023-03-17T05:07:11.996Z,13.95
2023-03-17T05:08:16.070Z,11.43
2023-03-17T05:09:19.782Z,12.65
2023-03-17T05:10:23.374Z,10.77
2023-03-17T05:11:27.111Z,12.00
2023-03-17T05:12:31.005Z,11.63
2023-03-17T05:13:34.678Z,15.02
2023-03-17T05:14:38.689Z,11.27
2023-03-17T05:15:52.773Z,11.40
2023-03-17T05:16:58.503Z,15.60
2023-03-17T05:18:05.009Z,13.83
2023-03-17T05:19:08.858Z,12.50
2023-03-17T05:20:13.838Z,11.20
2023-03-17T05:21:17.730Z,12.65
2023-03-17T05:22:21.372Z,12.48
2023-03-17T05:23:26.075Z,11.10
2023-03-17T05:24:29.967Z,14.00
2023-03-17T05:25:33.809Z,15.02
2023-03-17T05:26:37.979Z,13.13
2023-03-17T05:27:41.816Z,14.13
2023-03-17T05:28:46.277Z,14.50
2023-03-17T05:29:50.024Z,12.33
2023-03-17T05:30:55.895Z,13.73
2023-03-17T05:32:00.013Z,14.02
2023-03-17T05:33:05.092Z,16.13
2023-03-17T05:34:08.805Z,13.82
2023-03-17T05:35:13.753Z,12.57
2023-03-17T05:36:18.142Z,11.90
2023-03-17T05:37:23.070Z,14.23
2023-03-17T05:38:26.873Z,13.50
2023-03-17T05:39:30.858Z,13.20
2023-03-17T05:40:35.683Z,13.43
2023-03-17T05:41:39.614Z,15.27
2023-03-17T05:42:47.104Z,12.18
2023-03-17T05:43:50.852Z,11.38
2023-03-17T05:44:55.111Z,13.47
2023-03-17T05:46:01.700Z,11.57
2023-03-17T05:47:05.706Z,11.03
2023-03-17T05:48:09.416Z,14.13
2023-03-17T05:49:13.359Z,15.03
2023-03-17T05:50:17.454Z,14.73
2023-03-17T05:51:21.522Z,11.20
2023-03-17T05:52:25.523Z,11.85
2023-03-17T05:53:29.914Z,12.25
2023-03-17T05:54:33.865Z,12.13
2023-03-17T05:55:37.974Z,10.97
2023-03-17T05:56:43.069Z,11.00
2023-03-17T05:57:47.511Z,11.55
2023-03-17T05:58:51.308Z,10.90
2023-03-17T05:59:54.901Z,12.60
2023-03-17T06:00:58.855Z,11.55
2023-03-17T06:02:03.301Z,11.13
2023-03-17T06:03:08.249Z,11.77
2023-03-17T06:04:12.753Z,12.88
2023-03-17T06:05:16.653Z,10.30
2023-03-17T06:06:20.601Z,8.83
2023-03-17T06:07:31.234Z,11.52
2023-03-17T06:08:49.590Z,12.05
2023-03-17T06:09:56.010Z,11.32
2023-03-17T06:10:59.871Z,12.32
2023-03-17T06:12:03.946Z,13.10
2023-03-17T06:13:07.742Z,16.20
2023-03-17T06:14:14.825Z,11.63
2023-03-17T06:15:20.089Z,13.50
2023-03-17T06:16:23.963Z,14.00
2023-03-17T06:17:31.412Z,13.50
2023-03-17T06:18:35.839Z,15.00
2023-03-17T06:19:39.641Z,12.20
2023-03-17T06:20:43.381Z,11.48
2023-03-17T06:21:46.869Z,13.55
2023-03-17T06:23:03.378Z,14.20
2023-03-17T06:24:09.724Z,9.98
2023-03-17T06:25:15.602Z,12.38
2023-03-17T06:26:19.620Z,11.02
2023-03-17T06:27:23.525Z,12.07
2023-03-17T06:28:27.361Z,10.43
2023-03-17T06:29:31.896Z,11.10
2023-03-17T06:30:38.789Z,10.48
2023-03-17T06:31:50.350Z,11.80
2023-03-17T06:32:54.987Z,12.10
2023-03-17T06:33:58.727Z,11.15
2023-03-17T06:35:04.081Z,11.95
2023-03-17T06:36:08.916Z,11.68
2023-03-17T06:37:12.685Z,12.68
2023-03-17T06:38:16.468Z,11.68
2023-03-17T06:39:20.223Z,10.88
2023-03-17T06:40:24.895Z,12.25
2023-03-17T06:41:29.075Z,9.68
2023-03-17T06:42:32.773Z,9.30
2023-03-17T06:43:36.556Z,9.07
2023-03-17T06:44:41.037Z,8.20
2023-03-17T06:45:48.822Z,9.77
2023-03-17T06:46:54.418Z,8.00
2023-03-17T06:47:58.043Z,10.10
2023-03-17T06:49:03.408Z,6.30
2023-03-17T06:50:09.931Z,7.07
2023-03-17T06:51:13.677Z,7.18
2023-03-17T06:52:17.576Z,8.93
2023-03-17T06:53:22.289Z,8.85
2023-03-17T06:54:26.311Z,6.68
2023-03-17T06:55:30.168Z,7.72
2023-03-17T06:56:33.963Z,7.63
2023-03-17T06:57:37.563Z,6.05
2023-03-17T06:58:42.002Z,6.88
2023-03-17T06:59:46.260Z,7.72
2023-03-17T07:00:50.016Z,6.45
2023-03-17T07:01:54.246Z,6.90
2023-03-17T07:02:57.944Z,5.65
2023-03-17T07:04:01.456Z,4.70
2023-03-17T07:05:06.585Z,7.13
2023-03-17T07:06:10.187Z,7.25
2023-03-17T07:07:14.854Z,5.47
2023-03-17T07:08:18.609Z,5.30
2023-03-17T07:09:22.361Z,4.78
2023-03-17T08:00:24.980Z,4.43
2023-03-17T08:01:30.719Z,3.72
2023-03-17T08:02:34.349Z,4.32
2023-03-17T08:03:41.127Z,4.60
2023-03-17T08:04:50.191Z,4.57
2023-03-17T08:05:57.880Z,4.45
2023-03-17T08:07:01.689Z,3.90
2023-03-17T08:08:08.406Z,3.55
2023-03-17T08:09:15.512Z,4.03
2023-03-17T08:10:19.356Z,5.13
2023-03-17T08:11:23.710Z,4.68
2023-03-17T08:12:27.572Z,4.40
2023-03-17T08:13:34.624Z,3.50
2023-03-17T08:14:38.924Z,4.05
2023-03-17T08:15:43.332Z,4.13
2023-03-17T08:16:48.599Z,4.03
2023-03-17T08:17:53.852Z,4.32
2023-03-17T08:18:59.065Z,4.13
2023-03-17T08:20:11.490Z,4.10
2023-03-17T08:21:16.751Z,4.95
2023-03-17T08:22:21.155Z,4.03
2023-03-17T08:23:25.881Z,3.75
2023-03-17T08:24:30.284Z,4.45
2023-03-17T08:25:34.126Z,4.50
2023-03-17T08:26:37.871Z,5.10
2023-03-17T08:27:47.995Z,4.00
2023-03-17T08:28:51.910Z,3.90
2023-03-17T08:29:55.903Z,3.85
2023-03-17T08:31:17.293Z,4.35
2023-03-17T08:32:21.168Z,4.38
2023-03-17T08:33:25.070Z,4.55
2023-03-17T08:34:29.385Z,4.03
2023-03-17T08:35:37.718Z,4.18
2023-03-17T08:36:41.813Z,4.95
2023-03-17T08:37:52.656Z,3.72
2023-03-17T08:39:00.390Z,3.53
2023-03-17T08:40:06.600Z,4.18
2023-03-17T08:41:18.407Z,4.13
2023-03-17T08:42:25.037Z,4.35
2023-03-17T08:43:32.649Z,3.13
2023-03-17T08:44:37.479Z,4.82
2023-03-17T08:45:41.809Z,3.22
2023-03-17T08:46:50.293Z,3.90
2023-03-17T08:47:54.552Z,3.40
2023-03-17T08:49:00.141Z,3.67
2023-03-17T08:50:08.621Z,4.80
2023-03-17T08:51:14.937Z,3.33
2023-03-17T08:52:19.329Z,4.28
2023-03-17T08:53:23.042Z,3.05
2023-03-17T08:54:26.672Z,3.45
2023-03-17T08:55:30.861Z,3.60
2023-03-17T08:56:35.314Z,2.88
2023-03-17T08:57:39.634Z,2.60
2023-03-17T08:58:44.096Z,3.00
2023-03-17T08:59:48.147Z,2.70
2023-03-17T09:00:55.193Z,3.53
2023-03-17T09:02:00.721Z,3.13
2023-03-17T09:03:06.295Z,3.45
2023-03-17T09:04:09.866Z,3.13
2023-03-17T09:05:18.513Z,3.40
2023-03-17T09:06:24.445Z,2.63
2023-03-17T09:07:28.029Z,2.88
2023-03-17T09:08:33.208Z,3.40
2023-03-17T09:09:37.571Z,3.17
2023-03-17T09:10:44.287Z,2.40
2023-03-17T09:11:51.271Z,3.30
2023-03-17T09:13:01.515Z,2.45
2023-03-17T09:14:05.833Z,2.17
2023-03-17T09:15:17.647Z,2.78
2023-03-17T09:16:23.226Z,1.98
2023-03-17T09:17:27.663Z,2.20
2023-03-17T09:18:33.201Z,1.88
2023-03-17T09:19:40.449Z,2.30
2023-03-17T09:20:46.421Z,2.03
2023-03-17T09:21:53.110Z,2.10
2023-03-17T09:23:00.371Z,1.60
2023-03-17T09:24:04.109Z,2.50
2023-03-17T09:25:08.733Z,2.33
2023-03-17T09:26:12.846Z,1.98
2023-03-17T09:27:16.867Z,2.17
2023-03-17T09:28:22.940Z,1.92
2023-03-17T09:29:27.354Z,2.20
2023-03-17T09:30:33.375Z,2.38
2023-03-17T09:31:38.110Z,1.77
2023-03-17T09:32:42.570Z,2.35
2023-03-17T09:33:47.630Z,2.20
2023-03-17T09:34:51.816Z,2.42
2023-03-17T09:35:57.384Z,2.10
2023-03-17T09:37:01.159Z,2.55
2023-03-17T09:38:09.574Z,2.78
2023-03-17T09:39:13.808Z,2.22
2023-03-17T09:40:22.672Z,2.17
2023-03-17T09:42:06.749Z,2.72
2023-03-17T09:43:41.593Z,2.40
2023-03-17T09:45:07.882Z,2.63
2023-03-17T09:46:59.775Z,2.35
2023-03-17T09:48:17.970Z,1.92
2023-03-17T09:49:48.582Z,2.80
2023-03-17T09:51:03.138Z,1.90
2023-03-17T09:52:18.734Z,2.20
2023-03-17T09:53:34.332Z,2.55
2023-03-17T09:54:39.681Z,2.78
2023-03-17T09:55:55.085Z,2.72
2023-03-17T09:57:25.238Z,2.42
2023-03-17T09:58:34.720Z,2.03
2023-03-17T09:59:44.632Z,1.80
2023-03-17T10:00:49.215Z,1.50
2023-03-17T10:01:53.675Z,2.30
2023-03-17T10:02:59.689Z,2.83
2023-03-17T10:04:12.435Z,2.25
2023-03-17T10:05:25.341Z,2.50
2023-03-17T10:06:35.750Z,1.65
2023-03-17T10:08:32.084Z,2.47
2023-03-17T10:10:12.423Z,2.47
2023-03-17T10:11:37.015Z,2.00
2023-03-17T10:13:13.605Z,3.63
2023-03-17T10:14:40.075Z,1.92
2023-03-17T10:15:57.231Z,2.03
2023-03-17T10:17:21.243Z,2.75
2023-03-17T10:18:44.354Z,1.67
2023-03-17T10:20:05.197Z,2.63
2023-03-17T10:21:17.387Z,3.08
2023-03-17T10:22:35.189Z,2.67
2023-03-17T10:23:39.653Z,2.58
2023-03-17T10:24:52.656Z,1.92
2023-03-17T10:26:06.143Z,1.80
2023-03-17T10:27:15.474Z,2.20
2023-03-17T10:28:32.637Z,2.17
2023-03-17T10:29:37.539Z,2.22
2023-03-17T10:30:41.948Z,1.98
2023-03-17T10:31:46.401Z,2.13
2023-03-17T10:32:53.100Z,2.40
2023-03-17T10:34:04.260Z,2.45
2023-03-17T10:35:08.910Z,2.15
2023-03-17T10:36:31.530Z,2.17
2023-03-17T10:37:36.796Z,1.70
2023-03-17T10:38:40.530Z,1.85
2023-03-17T10:39:50.054Z,2.42
2023-03-17T10:41:06.585Z,2.30
2023-03-17T10:42:28.021Z,1.80
2023-03-17T10:43:45.988Z,1.50
2023-03-17T10:45:25.039Z,2.40
2023-03-17T10:46:31.092Z,3.55
2023-03-17T10:47:40.589Z,3.05
2023-03-17T10:49:08.568Z,2.17
2023-03-17T10:50:26.385Z,2.05
2023-03-17T10:51:38.823Z,2.08
2023-03-17T10:52:46.740Z,1.88
2023-03-17T10:53:53.634Z,2.15
2023-03-17T10:55:06.017Z,2.05
2023-03-17T10:56:26.374Z,2.20
2023-03-17T10:57:31.507Z,1.63
2023-03-17T10:58:49.130Z,2.17
2023-03-17T10:59:58.882Z,2.28
2023-03-17T11:01:30.796Z,1.85
2023-03-17T11:02:56.501Z,1.40
2023-03-17T11:04:02.793Z,2.03
2023-03-17T11:05:23.702Z,3.08
2023-03-17T11:06:42.470Z,2.50
2023-03-17T11:07:46.966Z,2.33
2023-03-17T11:08:56.292Z,2.47
2023-03-17T11:10:06.633Z,2.00
2023-03-17T11:11:36.353Z,2.10
2023-03-17T11:12:41.930Z,1.90
2023-03-17T11:13:47.484Z,1.88
2023-03-17T11:15:11.323Z,2.10
2023-03-17T11:16:30.274Z,1.88
2023-03-17T11:18:35.921Z,2.10
2023-03-17T11:20:19.371Z,2.35
2023-03-17T11:22:05.194Z,1.70
2023-03-17T11:24:09.766Z,1.75
2023-03-17T11:25:22.140Z,1.70
2023-03-17T11:27:06.611Z,1.67
2023-03-17T11:28:53.562Z,1.80
2023-03-17T11:30:16.589Z,2.00
2023-03-17T11:31:34.380Z,1.70
2023-03-17T11:33:42.376Z,2.88
2023-03-17T11:35:27.410Z,1.88
2023-03-17T11:37:19.375Z,1.60
2023-03-17T11:38:24.899Z,1.80
2023-03-17T11:39:53.198Z,1.83
2023-03-17T11:41:18.288Z,2.15
2023-03-17T11:42:26.063Z,2.00
2023-03-17T11:44:19.308Z,2.67
2023-03-17T11:46:09.422Z,1.40
2023-03-17T11:47:34.341Z,1.60
2023-03-17T11:48:43.985Z,2.10
2023-03-17T11:50:04.986Z,2.33
2023-03-17T11:51:34.132Z,1.80
2023-03-17T11:52:52.336Z,2.10
2023-03-17T11:54:29.781Z,1.92
2023-03-17T11:55:45.410Z,1.67
2023-03-17T11:56:56.192Z,2.30
2023-03-17T11:58:10.770Z,1.73
2023-03-17T11:59:37.449Z,1.30
2023-03-17T12:00:53.864Z,2.15
2023-03-17T12:02:19.382Z,1.48
2023-03-17T12:04:34.398Z,1.70
2023-03-17T12:05:39.167Z,1.52
2023-03-17T12:06:57.186Z,1.50
2023-03-17T12:08:18.137Z,1.63
2023-03-17T12:09:43.543Z,2.13
2023-03-17T12:10:54.802Z,2.63
2023-03-17T12:12:03.129Z,7.80
2023-03-17T12:13:19.252Z,8.43
2023-03-17T12:14:30.840Z,6.22
2023-03-17T12:15:56.590Z,4.13
2023-03-17T12:17:39.285Z,2.13
2023-03-17T12:19:16.777Z,3.25
2023-03-17T12:20:42.365Z,4.40
2023-03-17T12:22:00.759Z,2.88
2023-03-17T12:23:54.614Z,2.40
2023-03-17T12:25:16.888Z,1.55
2023-03-17T12:26:45.696Z,1.95
2023-03-17T12:28:11.217Z,2.25
2023-03-17T12:29:50.108Z,1.90
2023-03-17T12:31:24.806Z,1.48
2023-03-17T12:32:56.251Z,3.17
2023-03-17T12:34:37.229Z,2.08
2023-03-17T12:35:40.889Z,1.73
2023-03-17T12:36:49.556Z,2.05
2023-03-17T12:37:58.753Z,1.90
2023-03-17T12:39:19.991Z,2.05
2023-03-17T12:40:51.731Z,2.10
2023-03-17T12:42:29.143Z,2.03
2023-03-17T12:44:11.312Z,1.50
2023-03-17T12:46:15.868Z,2.05
2023-03-17T12:48:07.211Z,1.67
2023-03-17T12:49:27.326Z,2.22
2023-03-17T12:51:06.797Z,1.90
2023-03-17T12:52:41.157Z,2.05
2023-03-17T12:53:50.796Z,1.30
2023-03-17T12:54:59.688Z,1.52
2023-03-17T12:56:29.065Z,1.83
2023-03-17T12:57:48.135Z,1.67
2023-03-17T12:59:04.912Z,1.52
2023-03-17T13:00:32.049Z,1.70
2023-03-17T13:01:55.041Z,2.17
2023-03-17T13:03:34.760Z,2.17
2023-03-17T13:05:04.625Z,1.65
2023-03-17T13:06:21.546Z,2.42
2023-03-17T13:07:31.678Z,1.70
2023-03-17T13:08:42.535Z,1.63
2023-03-17T13:09:55.042Z,1.83
2023-03-17T13:11:29.681Z,1.52
2023-03-17T13:12:42.656Z,1.85
2023-03-17T13:13:55.449Z,1.67
2023-03-17T13:14:59.858Z,1.85
2023-03-17T13:16:06.330Z,1.55
2023-03-17T13:17:19.934Z,1.73
2023-03-17T13:18:50.409Z,2.80
2023-03-17T13:20:10.210Z,2.15
2023-03-17T13:21:18.759Z,1.60
2023-03-17T13:22:23.410Z,1.75
2023-03-17T13:23:51.057Z,1.52
2023-03-17T13:25:35.594Z,2.05
2023-03-17T13:27:04.639Z,1.75
2023-03-17T13:28:15.482Z,1.73
2023-03-17T13:29:47.414Z,1.77
2023-03-17T13:31:14.754Z,1.48
2023-03-17T13:32:27.128Z,2.05
2023-03-17T13:33:34.097Z,2.17
2023-03-17T13:34:53.069Z,2.00
2023-03-17T13:36:38.734Z,2.03
2023-03-17T13:38:00.219Z,1.65
2023-03-17T13:39:34.850Z,1.60
2023-03-17T13:41:35.816Z,1.90
2023-03-17T13:42:42.555Z,1.25
2023-03-17T13:44:13.463Z,1.10
2023-03-17T13:45:40.202Z,1.35
2023-03-17T13:46:48.371Z,1.60
2023-03-17T13:47:52.636Z,2.05
2023-03-17T13:49:02.276Z,1.35
2023-03-17T13:50:17.294Z,1.92
2023-03-17T13:51:32.351Z,2.10
2023-03-17T13:52:48.982Z,2.33
2023-03-17T13:54:08.377Z,2.05
2023-03-17T13:55:17.964Z,2.20
2023-03-17T13:56:47.960Z,1.95
2023-03-17T13:58:18.229Z,1.85
2023-03-17T13:59:51.381Z,1.90
2023-03-17T14:01:04.415Z,1.70
2023-03-17T14:02:23.901Z,1.60
2023-03-17T14:03:54.150Z,1.60
2023-03-17T14:05:35.718Z,1.75
2023-03-17T14:06:42.887Z,1.73
2023-03-17T14:08:22.361Z,2.50
2023-03-17T14:09:41.615Z,2.13
2023-03-17T14:11:22.626Z,1.77
2023-03-17T14:12:58.946Z,1.90
2023-03-17T14:14:32.499Z,1.30
2023-03-17T14:16:08.909Z,1.63
2023-03-17T14:17:29.288Z,2.88
2023-03-17T14:18:44.407Z,1.85
2023-03-17T14:20:18.585Z,1.90
2023-03-17T14:21:26.930Z,1.58
2023-03-17T14:22:30.978Z,1.40
2023-03-17T14:23:38.540Z,1.55
2023-03-17T14:24:45.666Z,1.67
2023-03-17T14:25:50.686Z,2.15
2023-03-17T14:26:55.624Z,2.42
2023-03-17T14:28:00.879Z,1.70
2023-03-17T14:29:05.599Z,1.48
2023-03-17T14:30:33.650Z,1.73
2023-03-17T14:31:38.755Z,2.35
2023-03-17T14:32:49.591Z,1.15
2023-03-17T14:34:00.611Z,2.00
2023-03-17T14:35:05.140Z,1.40
2023-03-17T14:36:14.618Z,1.80
2023-03-17T14:37:19.176Z,1.70
2023-03-17T14:38:36.972Z,1.60
2023-03-17T14:39:53.913Z,1.80
2023-03-17T14:41:22.860Z,2.53
2023-03-17T14:42:34.038Z,1.77
2023-03-17T14:43:37.611Z,1.38
2023-03-17T14:44:43.700Z,1.60
2023-03-17T14:46:00.490Z,2.00
2023-03-17T14:47:12.912Z,3.17
2023-03-17T14:48:25.579Z,1.25
2023-03-17T14:49:33.567Z,1.70
2023-03-17T14:50:37.153Z,2.05
2023-03-17T14:51:45.836Z,1.70
2023-03-17T14:52:52.044Z,1.80
2023-03-17T14:54:01.386Z,2.55
2023-03-17T14:55:06.784Z,1.25
2023-03-17T14:56:13.297Z,1.60
2023-03-17T14:57:31.188Z,1.20
2023-03-17T14:58:45.023Z,1.40
2023-03-17T15:00:22.874Z,1.30
2023-03-17T15:01:45.674Z,1.50
2023-03-17T15:03:03.553Z,1.70
2023-03-17T15:04:13.233Z,1.30
2023-03-17T15:05:42.603Z,1.45
2023-03-17T15:06:54.289Z,1.50
2023-03-17T15:07:58.098Z,1.50
2023-03-17T15:09:28.531Z,1.88
2023-03-17T15:10:43.636Z,1.70
2023-03-17T15:11:48.453Z,1.98
2023-03-17T15:13:02.537Z,2.03
2023-03-17T15:14:36.589Z,1.25
2023-03-17T15:15:41.780Z,1.40
2023-03-17T15:16:51.871Z,1.73
2023-03-17T15:18:07.447Z,1.92
2023-03-17T15:19:41.449Z,1.20
2023-03-17T15:20:45.985Z,1.88
2023-03-17T15:21:52.858Z,1.70
2023-03-17T15:23:14.503Z,1.73
2023-03-17T15:24:39.416Z,1.45
2023-03-17T15:25:47.909Z,2.20
2023-03-17T15:27:08.963Z,1.63
2023-03-17T15:28:20.994Z,2.50
2023-03-17T15:30:50.712Z,1.92
2023-03-17T15:32:11.384Z,1.85
2023-03-17T15:33:36.461Z,1.38
2023-03-17T15:34:41.668Z,1.25
2023-03-17T15:35:47.023Z,1.60
2023-03-17T15:36:53.108Z,1.73
2023-03-17T15:37:57.126Z,1.88
2023-03-17T15:39:02.532Z,1.75
2023-03-17T15:40:09.499Z,1.83
2023-03-17T15:41:13.224Z,1.27
2023-03-17T15:42:22.822Z,1.30
2023-03-17T15:43:27.283Z,1.65
2023-03-17T15:44:31.444Z,1.63
2023-03-17T15:45:35.398Z,1.70
2023-03-17T15:46:39.791Z,2.33
2023-03-17T15:47:47.497Z,1.33
2023-03-17T15:48:51.858Z,1.30
2023-03-17T15:50:12.753Z,2.20
2023-03-17T15:51:19.893Z,2.05
2023-03-17T15:52:29.239Z,1.40
2023-03-17T15:53:33.329Z,1.63
2023-03-17T15:54:37.135Z,1.20
2023-03-17T15:55:48.803Z,1.40
2023-03-17T15:56:56.069Z,2.20
2023-03-17T15:58:00.445Z,1.60
2023-03-17T15:59:04.955Z,1.63
2023-03-17T16:00:15.172Z,1.80
2023-03-17T16:01:20.850Z,2.22
2023-03-17T16:02:36.653Z,1.98
2023-03-17T16:03:42.471Z,1.88
2023-03-17T16:04:50.484Z,1.50
2023-03-17T16:05:55.834Z,1.08
2023-03-17T16:06:59.636Z,1.60
2023-03-17T16:08:05.832Z,1.50
2023-03-17T16:09:17.733Z,1.40
2023-03-17T16:10:33.927Z,1.90
2023-03-17T16:11:41.194Z,1.83
2023-03-17T16:12:45.979Z,2.13
2023-03-17T16:13:49.527Z,2.25
2023-03-17T16:14:53.490Z,1.60
2023-03-17T16:16:01.182Z,1.30
2023-03-17T16:17:14.727Z,1.50
2023-03-17T16:18:32.885Z,1.75
2023-03-17T16:19:39.443Z,1.58
2023-03-17T16:20:49.741Z,1.65
2023-03-17T16:21:55.660Z,2.05
2023-03-17T16:23:08.243Z,1.42
2023-03-17T16:24:27.036Z,1.90
2023-03-17T16:25:34.063Z,1.52